PBD530 UMKK-ULLI
Flight info
| Callsign | PBD530 |
|---|---|
| Flight time | 1h 25m |
| Altitude | 35000 |
| Route | N0450F350 PELUG DCT OTVOV DCT KEDUX DCT PIVAX DCT PIRUX DCT PISIM DCT PIDIN DCT ARANS DCT PISIS DCT AKARU |
| Aircraft | B738/M-VGDW/C |
Departure
| Time | 2026-05-05 16:21 |
|---|---|
| Airport | Khrabrovo Airport (UMKK) |
Arrival
| Time | 2026-05-05 17:46 |
|---|---|
| Airport | Pulkovo Airport (ULLI) |
| Time | Latitude | Longitude | Altitude | Speed | Heading |
|---|---|---|---|---|---|
| 2026-05-05 16:03 | 54.88538 | 20.58675 | 29 ft | 0 kts | 154° |
| 2026-05-05 16:12 | 54.88518 | 20.58693 | 23 ft | 5 kts | 146° |
| 2026-05-05 16:13 | 54.88566 | 20.58845 | 26 ft | 3 kts | 354° |
| 2026-05-05 16:13 | 54.88585 | 20.58820 | 27 ft | 4 kts | 316° |
| 2026-05-05 16:13 | 54.88612 | 20.58775 | 27 ft | 6 kts | 316° |
| 2026-05-05 16:14 | 54.88681 | 20.58796 | 27 ft | 6 kts | 64° |
| 2026-05-05 16:14 | 54.88738 | 20.58964 | 27 ft | 10 kts | 32° |
| 2026-05-05 16:15 | 54.88875 | 20.59087 | 24 ft | 13 kts | 28° |
| 2026-05-05 16:15 | 54.89000 | 20.59263 | 26 ft | 10 kts | 59° |
| 2026-05-05 16:16 | 54.89074 | 20.59520 | 24 ft | 16 kts | 65° |
| 2026-05-05 16:16 | 54.89200 | 20.59995 | 21 ft | 26 kts | 65° |
| 2026-05-05 16:17 | 54.89350 | 20.60585 | 24 ft | 29 kts | 66° |
| 2026-05-05 16:17 | 54.89425 | 20.60888 | 21 ft | 29 kts | 66° |
| 2026-05-05 16:18 | 54.89607 | 20.61564 | 22 ft | 27 kts | 67° |
| 2026-05-05 16:18 | 54.89675 | 20.61887 | 26 ft | 29 kts | 68° |
| 2026-05-05 16:18 | 54.89745 | 20.62208 | 23 ft | 5 kts | 35° |
| 2026-05-05 16:19 | 54.89772 | 20.62208 | 23 ft | 3 kts | 328° |
| 2026-05-05 16:19 | 54.89775 | 20.62172 | 23 ft | 4 kts | 251° |
| 2026-05-05 16:19 | 54.89739 | 20.62073 | 24 ft | 0 kts | 247° |
| 2026-05-05 16:20 | 54.89720 | 20.61997 | 25 ft | 27 kts | 246° |
| 2026-05-05 16:20 | 54.89155 | 20.59798 | 23 ft | 163 kts | 247° |
| 2026-05-05 16:21 | 54.88103 | 20.55632 | 1452 ft | 186 kts | 249° |
| 2026-05-05 16:22 | 54.87078 | 20.48305 | 3092 ft | 236 kts | 290° |
| 2026-05-05 16:22 | 54.89511 | 20.44541 | 4772 ft | 252 kts | 338° |
| 2026-05-05 16:23 | 54.92949 | 20.42842 | 6409 ft | 261 kts | 340° |
| 2026-05-05 16:23 | 54.94717 | 20.42010 | 7201 ft | 264 kts | 340° |
| 2026-05-05 16:23 | 54.98304 | 20.40299 | 8823 ft | 270 kts | 339° |
| 2026-05-05 16:24 | 55.00127 | 20.39420 | 9626 ft | 273 kts | 339° |
| 2026-05-05 16:24 | 55.01949 | 20.38537 | 10295 ft | 280 kts | 339° |
| 2026-05-05 16:24 | 55.06028 | 20.36541 | 10714 ft | 328 kts | 339° |
| 2026-05-05 16:25 | 55.08306 | 20.35429 | 10905 ft | 350 kts | 340° |
| 2026-05-05 16:25 | 55.13165 | 20.33213 | 12020 ft | 370 kts | 347° |
| 2026-05-05 16:25 | 55.15774 | 20.33069 | 12733 ft | 381 kts | 360° |
| 2026-05-05 16:26 | 55.21051 | 20.35369 | 13998 ft | 399 kts | 13° |
| 2026-05-05 16:26 | 55.26370 | 20.38502 | 15226 ft | 407 kts | 14° |
| 2026-05-05 16:27 | 55.29067 | 20.40105 | 15838 ft | 410 kts | 14° |
| 2026-05-05 16:27 | 55.31789 | 20.41708 | 16438 ft | 414 kts | 14° |
| 2026-05-05 16:27 | 55.34540 | 20.43316 | 17022 ft | 418 kts | 14° |
| 2026-05-05 16:27 | 55.37317 | 20.44932 | 17615 ft | 422 kts | 13° |
| 2026-05-05 16:28 | 55.40115 | 20.46555 | 18192 ft | 426 kts | 13° |
| 2026-05-05 16:28 | 55.42938 | 20.48191 | 18682 ft | 430 kts | 13° |
| 2026-05-05 16:28 | 55.45792 | 20.49845 | 19182 ft | 433 kts | 13° |
| 2026-05-05 16:28 | 55.48637 | 20.51495 | 19663 ft | 437 kts | 13° |
| 2026-05-05 16:29 | 55.51572 | 20.53200 | 20149 ft | 440 kts | 13° |
| 2026-05-05 16:29 | 55.54457 | 20.54877 | 20615 ft | 444 kts | 13° |
| 2026-05-05 16:29 | 55.57404 | 20.56593 | 21073 ft | 448 kts | 13° |
| 2026-05-05 16:29 | 55.60375 | 20.58326 | 21532 ft | 451 kts | 13° |
| 2026-05-05 16:30 | 55.63368 | 20.60075 | 21980 ft | 455 kts | 13° |
| 2026-05-05 16:30 | 55.66429 | 20.61866 | 22427 ft | 458 kts | 13° |
| 2026-05-05 16:30 | 55.69427 | 20.63624 | 22855 ft | 462 kts | 13° |
| 2026-05-05 16:30 | 55.72492 | 20.65424 | 23280 ft | 465 kts | 12° |
| 2026-05-05 16:31 | 55.75582 | 20.67241 | 23661 ft | 469 kts | 12° |
| 2026-05-05 16:31 | 55.78680 | 20.69067 | 24014 ft | 472 kts | 12° |
| 2026-05-05 16:31 | 55.81811 | 20.70916 | 24381 ft | 474 kts | 12° |
| 2026-05-05 16:31 | 55.84940 | 20.72767 | 24739 ft | 476 kts | 12° |
| 2026-05-05 16:32 | 55.88103 | 20.74640 | 25071 ft | 479 kts | 12° |
| 2026-05-05 16:32 | 55.91271 | 20.76519 | 25410 ft | 482 kts | 12° |
| 2026-05-05 16:32 | 55.94462 | 20.78416 | 25741 ft | 485 kts | 12° |
| 2026-05-05 16:32 | 55.97670 | 20.80325 | 26068 ft | 487 kts | 12° |
| 2026-05-05 16:33 | 56.00896 | 20.82250 | 26384 ft | 490 kts | 12° |
| 2026-05-05 16:33 | 56.04140 | 20.84187 | 26697 ft | 492 kts | 12° |
| 2026-05-05 16:33 | 56.07406 | 20.86142 | 26996 ft | 495 kts | 12° |
| 2026-05-05 16:33 | 56.10678 | 20.88104 | 27298 ft | 497 kts | 12° |
| 2026-05-05 16:34 | 56.13967 | 20.90079 | 27594 ft | 499 kts | 12° |
| 2026-05-05 16:34 | 56.17263 | 20.92063 | 27882 ft | 502 kts | 12° |
| 2026-05-05 16:34 | 56.20586 | 20.94066 | 28162 ft | 504 kts | 12° |
| 2026-05-05 16:34 | 56.23922 | 20.96081 | 28432 ft | 506 kts | 12° |
| 2026-05-05 16:35 | 56.27226 | 20.98080 | 28727 ft | 508 kts | 12° |
| 2026-05-05 16:35 | 56.30568 | 21.00108 | 29125 ft | 507 kts | 12° |
| 2026-05-05 16:35 | 56.33909 | 21.02141 | 29566 ft | 505 kts | 12° |
| 2026-05-05 16:35 | 56.37244 | 21.04173 | 29979 ft | 504 kts | 12° |
| 2026-05-05 16:36 | 56.40572 | 21.06203 | 30302 ft | 504 kts | 12° |
| 2026-05-05 16:36 | 56.43890 | 21.08230 | 30673 ft | 502 kts | 12° |
| 2026-05-05 16:36 | 56.47196 | 21.10255 | 31082 ft | 499 kts | 12° |
| 2026-05-05 16:36 | 56.50483 | 21.12271 | 31480 ft | 497 kts | 12° |
| 2026-05-05 16:37 | 56.53750 | 21.14277 | 31836 ft | 495 kts | 12° |
| 2026-05-05 16:37 | 56.57013 | 21.16285 | 32183 ft | 494 kts | 12° |
| 2026-05-05 16:37 | 56.60261 | 21.18285 | 32537 ft | 492 kts | 12° |
| 2026-05-05 16:37 | 56.63505 | 21.20288 | 32891 ft | 491 kts | 12° |
| 2026-05-05 16:38 | 56.66685 | 21.22254 | 33242 ft | 489 kts | 13° |
| 2026-05-05 16:38 | 56.69902 | 21.24247 | 33581 ft | 487 kts | 13° |
| 2026-05-05 16:38 | 56.73108 | 21.26237 | 33901 ft | 486 kts | 13° |
| 2026-05-05 16:38 | 56.76304 | 21.28224 | 34185 ft | 485 kts | 13° |
| 2026-05-05 16:39 | 56.79492 | 21.30210 | 34459 ft | 483 kts | 13° |
| 2026-05-05 16:39 | 56.82663 | 21.32188 | 34700 ft | 482 kts | 13° |
| 2026-05-05 16:39 | 56.85848 | 21.34178 | 34879 ft | 483 kts | 13° |
| 2026-05-05 16:39 | 56.89036 | 21.36171 | 34896 ft | 486 kts | 13° |
| 2026-05-05 16:40 | 56.94346 | 21.39504 | 34906 ft | 484 kts | 13° |
| 2026-05-05 16:40 | 57.00694 | 21.43507 | 34897 ft | 480 kts | 13° |
| 2026-05-05 16:41 | 57.06999 | 21.47495 | 34905 ft | 478 kts | 13° |
| 2026-05-05 16:41 | 57.13273 | 21.51474 | 34909 ft | 476 kts | 13° |
| 2026-05-05 16:42 | 57.19532 | 21.55458 | 34914 ft | 476 kts | 13° |
| 2026-05-05 16:42 | 57.25802 | 21.59463 | 34921 ft | 477 kts | 13° |
| 2026-05-05 16:43 | 57.32050 | 21.63468 | 34922 ft | 479 kts | 14° |
| 2026-05-05 16:43 | 57.38372 | 21.67536 | 34921 ft | 482 kts | 14° |
| 2026-05-05 16:44 | 57.44759 | 21.71662 | 34917 ft | 484 kts | 14° |
| 2026-05-05 16:44 | 57.50698 | 21.75513 | 34912 ft | 485 kts | 14° |
| 2026-05-05 16:45 | 57.57083 | 21.79668 | 34902 ft | 486 kts | 14° |
| 2026-05-05 16:45 | 57.63481 | 21.83848 | 34894 ft | 487 kts | 14° |
| 2026-05-05 16:46 | 57.69871 | 21.88038 | 34885 ft | 486 kts | 14° |
| 2026-05-05 16:46 | 57.76251 | 21.92237 | 34887 ft | 486 kts | 14° |
| 2026-05-05 16:47 | 57.82620 | 21.96444 | 34892 ft | 485 kts | 14° |
| 2026-05-05 16:47 | 57.88982 | 22.00662 | 34881 ft | 484 kts | 14° |
| 2026-05-05 16:48 | 57.95293 | 22.04862 | 34889 ft | 484 kts | 14° |
| 2026-05-05 16:48 | 58.01643 | 22.09103 | 34883 ft | 483 kts | 14° |
| 2026-05-05 16:49 | 58.07982 | 22.13352 | 34884 ft | 483 kts | 14° |
| 2026-05-05 16:49 | 58.14325 | 22.17621 | 34887 ft | 483 kts | 14° |
| 2026-05-05 16:50 | 58.20657 | 22.21899 | 34885 ft | 483 kts | 14° |
| 2026-05-05 16:50 | 58.27000 | 22.26200 | 34887 ft | 484 kts | 14° |
| 2026-05-05 16:51 | 58.33346 | 22.30519 | 34885 ft | 485 kts | 14° |
| 2026-05-05 16:51 | 58.39699 | 22.34861 | 34891 ft | 485 kts | 14° |
| 2026-05-05 16:52 | 58.46063 | 22.39226 | 34884 ft | 486 kts | 14° |
| 2026-05-05 16:52 | 58.52438 | 22.43615 | 34878 ft | 487 kts | 14° |
| 2026-05-05 16:53 | 58.58818 | 22.48026 | 34870 ft | 488 kts | 14° |
| 2026-05-05 16:53 | 58.65156 | 22.52425 | 34866 ft | 489 kts | 14° |
| 2026-05-05 16:54 | 58.71553 | 22.56881 | 34866 ft | 489 kts | 14° |
| 2026-05-05 16:54 | 58.77907 | 22.61326 | 34858 ft | 489 kts | 14° |
| 2026-05-05 16:55 | 58.84314 | 22.65825 | 34859 ft | 490 kts | 14° |
| 2026-05-05 16:55 | 58.90719 | 22.70340 | 34860 ft | 490 kts | 14° |
| 2026-05-05 16:56 | 58.97128 | 22.74875 | 34859 ft | 490 kts | 15° |
| 2026-05-05 16:56 | 59.03526 | 22.79421 | 34861 ft | 490 kts | 15° |
| 2026-05-05 16:57 | 59.09942 | 22.83998 | 34856 ft | 490 kts | 15° |
| 2026-05-05 16:57 | 59.16346 | 22.88585 | 34859 ft | 490 kts | 15° |
| 2026-05-05 16:58 | 59.22750 | 22.93190 | 34854 ft | 490 kts | 15° |
| 2026-05-05 16:58 | 59.29156 | 22.97815 | 34852 ft | 491 kts | 15° |
| 2026-05-05 16:59 | 59.35562 | 23.02459 | 34849 ft | 491 kts | 15° |
| 2026-05-05 16:59 | 59.41972 | 23.07125 | 34847 ft | 491 kts | 15° |
| 2026-05-05 17:00 | 59.48384 | 23.11808 | 34842 ft | 492 kts | 15° |
| 2026-05-05 17:00 | 59.51529 | 23.14494 | 34811 ft | 499 kts | 28° |
| 2026-05-05 17:00 | 59.54216 | 23.18881 | 34859 ft | 505 kts | 47° |
| 2026-05-05 17:01 | 59.56182 | 23.24618 | 34825 ft | 508 kts | 65° |
| 2026-05-05 17:01 | 59.57382 | 23.31154 | 34860 ft | 507 kts | 75° |
| 2026-05-05 17:01 | 59.59262 | 23.44564 | 34834 ft | 508 kts | 76° |
| 2026-05-05 17:02 | 59.61143 | 23.58047 | 34829 ft | 508 kts | 75° |
| 2026-05-05 17:02 | 59.63079 | 23.71510 | 34828 ft | 509 kts | 75° |
| 2026-05-05 17:03 | 59.65014 | 23.84878 | 34825 ft | 509 kts | 75° |
| 2026-05-05 17:03 | 59.66951 | 23.98359 | 34821 ft | 509 kts | 75° |
| 2026-05-05 17:04 | 59.68870 | 24.11843 | 34814 ft | 508 kts | 75° |
| 2026-05-05 17:04 | 59.70779 | 24.25380 | 34873 ft | 515 kts | 75° |
| 2026-05-05 17:05 | 59.72709 | 24.39190 | 34821 ft | 523 kts | 75° |
| 2026-05-05 17:05 | 59.74633 | 24.53070 | 34812 ft | 522 kts | 75° |
| 2026-05-05 17:06 | 59.76540 | 24.66953 | 34807 ft | 520 kts | 75° |
| 2026-05-05 17:06 | 59.78419 | 24.80754 | 34812 ft | 523 kts | 75° |
| 2026-05-05 17:07 | 59.80314 | 24.94799 | 34820 ft | 531 kts | 75° |
| 2026-05-05 17:07 | 59.82220 | 25.09050 | 34806 ft | 534 kts | 75° |
| 2026-05-05 17:08 | 59.84114 | 25.23347 | 34804 ft | 535 kts | 76° |
| 2026-05-05 17:08 | 59.85995 | 25.37673 | 34797 ft | 535 kts | 76° |
| 2026-05-05 17:09 | 59.87861 | 25.52024 | 34795 ft | 534 kts | 76° |
| 2026-05-05 17:09 | 59.89694 | 25.66258 | 34789 ft | 533 kts | 76° |
| 2026-05-05 17:10 | 59.91519 | 25.80559 | 34785 ft | 532 kts | 76° |
| 2026-05-05 17:10 | 59.93329 | 25.94859 | 34791 ft | 531 kts | 76° |
| 2026-05-05 17:11 | 59.95090 | 26.09147 | 34787 ft | 531 kts | 77° |
| 2026-05-05 17:11 | 59.96719 | 26.23530 | 34783 ft | 530 kts | 78° |
| 2026-05-05 17:12 | 59.98330 | 26.37895 | 34786 ft | 530 kts | 78° |
| 2026-05-05 17:12 | 59.99942 | 26.52250 | 34777 ft | 530 kts | 78° |
| 2026-05-05 17:13 | 60.01540 | 26.66628 | 34781 ft | 530 kts | 78° |
| 2026-05-05 17:13 | 60.03122 | 26.81032 | 34789 ft | 529 kts | 78° |
| 2026-05-05 17:14 | 60.04689 | 26.95423 | 34784 ft | 529 kts | 78° |
| 2026-05-05 17:14 | 60.06108 | 27.09878 | 34768 ft | 529 kts | 81° |
| 2026-05-05 17:15 | 60.07335 | 27.24400 | 34777 ft | 529 kts | 82° |
| 2026-05-05 17:15 | 60.08567 | 27.38951 | 34439 ft | 535 kts | 81° |
| 2026-05-05 17:16 | 60.09197 | 27.46335 | 33687 ft | 534 kts | 81° |
| 2026-05-05 17:16 | 60.09819 | 27.53617 | 32905 ft | 527 kts | 81° |
| 2026-05-05 17:16 | 60.10434 | 27.60836 | 32170 ft | 525 kts | 82° |
| 2026-05-05 17:16 | 60.11035 | 27.67955 | 31516 ft | 525 kts | 82° |
| 2026-05-05 17:17 | 60.11637 | 27.75143 | 31026 ft | 520 kts | 82° |
| 2026-05-05 17:17 | 60.12227 | 27.82242 | 30518 ft | 516 kts | 82° |
| 2026-05-05 17:17 | 60.12815 | 27.89363 | 30012 ft | 513 kts | 82° |
| 2026-05-05 17:17 | 60.13392 | 27.96403 | 29449 ft | 510 kts | 82° |
| 2026-05-05 17:18 | 60.13962 | 28.03417 | 28882 ft | 507 kts | 82° |
| 2026-05-05 17:18 | 60.14527 | 28.10405 | 28237 ft | 505 kts | 82° |
| 2026-05-05 17:18 | 60.15082 | 28.17318 | 27825 ft | 498 kts | 82° |
| 2026-05-05 17:18 | 60.15627 | 28.24149 | 27288 ft | 495 kts | 82° |
| 2026-05-05 17:19 | 60.16166 | 28.30958 | 26780 ft | 491 kts | 82° |
| 2026-05-05 17:19 | 60.16696 | 28.37707 | 26274 ft | 488 kts | 82° |
| 2026-05-05 17:19 | 60.17214 | 28.44332 | 25777 ft | 485 kts | 82° |
| 2026-05-05 17:19 | 60.17735 | 28.51000 | 25274 ft | 482 kts | 83° |
| 2026-05-05 17:20 | 60.18248 | 28.57653 | 24776 ft | 480 kts | 83° |
| 2026-05-05 17:20 | 60.18581 | 28.64299 | 24223 ft | 475 kts | 95° |
| 2026-05-05 17:20 | 60.18118 | 28.70801 | 23724 ft | 467 kts | 105° |
| 2026-05-05 17:20 | 60.17501 | 28.77194 | 23151 ft | 466 kts | 106° |
| 2026-05-05 17:21 | 60.16894 | 28.83567 | 22591 ft | 464 kts | 105° |
| 2026-05-05 17:21 | 60.16311 | 28.89920 | 22051 ft | 460 kts | 105° |
| 2026-05-05 17:21 | 60.15750 | 28.96230 | 21560 ft | 457 kts | 104° |
| 2026-05-05 17:22 | 60.14646 | 29.08672 | 20586 ft | 450 kts | 104° |
| 2026-05-05 17:22 | 60.14094 | 29.14822 | 20102 ft | 446 kts | 105° |
| 2026-05-05 17:22 | 60.13541 | 29.20930 | 19620 ft | 443 kts | 105° |
| 2026-05-05 17:22 | 60.13175 | 29.24940 | 19300 ft | 441 kts | 105° |
| 2026-05-05 17:23 | 60.12623 | 29.30974 | 18826 ft | 438 kts | 105° |
| 2026-05-05 17:23 | 60.12069 | 29.36963 | 18375 ft | 435 kts | 105° |
| 2026-05-05 17:23 | 60.11512 | 29.42897 | 17855 ft | 433 kts | 105° |
| 2026-05-05 17:23 | 60.10780 | 29.50732 | 17170 ft | 429 kts | 105° |
| 2026-05-05 17:24 | 60.10412 | 29.54688 | 16835 ft | 426 kts | 105° |
| 2026-05-05 17:24 | 60.09869 | 29.60512 | 16354 ft | 423 kts | 105° |
| 2026-05-05 17:24 | 60.09326 | 29.66286 | 15880 ft | 419 kts | 105° |
| 2026-05-05 17:24 | 60.08793 | 29.71919 | 15420 ft | 416 kts | 105° |
| 2026-05-05 17:25 | 60.08252 | 29.77593 | 14957 ft | 413 kts | 105° |
| 2026-05-05 17:25 | 60.07889 | 29.81387 | 14648 ft | 410 kts | 105° |
| 2026-05-05 17:25 | 60.07177 | 29.88797 | 14044 ft | 406 kts | 105° |
| 2026-05-05 17:25 | 60.06644 | 29.94335 | 13607 ft | 403 kts | 105° |
| 2026-05-05 17:26 | 60.06110 | 29.99841 | 13111 ft | 400 kts | 106° |
| 2026-05-05 17:26 | 60.05567 | 30.05276 | 12635 ft | 396 kts | 108° |
| 2026-05-05 17:26 | 60.04844 | 30.10539 | 12183 ft | 389 kts | 113° |
| 2026-05-05 17:26 | 60.04008 | 30.15657 | 11735 ft | 385 kts | 114° |
| 2026-05-05 17:27 | 60.03154 | 30.20693 | 11289 ft | 381 kts | 114° |
| 2026-05-05 17:27 | 60.02315 | 30.25708 | 10850 ft | 378 kts | 114° |
| 2026-05-05 17:27 | 60.01500 | 30.30701 | 10419 ft | 375 kts | 114° |
| 2026-05-05 17:27 | 60.00702 | 30.35656 | 9989 ft | 373 kts | 114° |
| 2026-05-05 17:28 | 59.99916 | 30.40548 | 9654 ft | 367 kts | 114° |
| 2026-05-05 17:28 | 59.99164 | 30.45253 | 9617 ft | 343 kts | 114° |
| 2026-05-05 17:28 | 59.98464 | 30.49621 | 9466 ft | 325 kts | 115° |
| 2026-05-05 17:28 | 59.97789 | 30.53793 | 9335 ft | 308 kts | 115° |
| 2026-05-05 17:29 | 59.97138 | 30.57793 | 9049 ft | 299 kts | 115° |
| 2026-05-05 17:29 | 59.96497 | 30.61709 | 8596 ft | 297 kts | 115° |
| 2026-05-05 17:29 | 59.95856 | 30.65627 | 8108 ft | 296 kts | 115° |
| 2026-05-05 17:29 | 59.95219 | 30.69502 | 7702 ft | 292 kts | 115° |
| 2026-05-05 17:30 | 59.94592 | 30.73320 | 7408 ft | 285 kts | 115° |
| 2026-05-05 17:30 | 59.93985 | 30.77019 | 7133 ft | 277 kts | 116° |
| 2026-05-05 17:30 | 59.93176 | 30.80337 | 6907 ft | 256 kts | 133° |
| 2026-05-05 17:30 | 59.92149 | 30.83155 | 6795 ft | 249 kts | 136° |
| 2026-05-05 17:31 | 59.91093 | 30.85908 | 6668 ft | 251 kts | 136° |
| 2026-05-05 17:31 | 59.90039 | 30.88707 | 6545 ft | 254 kts | 135° |
| 2026-05-05 17:31 | 59.88987 | 30.91545 | 6409 ft | 254 kts | 135° |
| 2026-05-05 17:31 | 59.87940 | 30.94381 | 6273 ft | 253 kts | 135° |
| 2026-05-05 17:32 | 59.86899 | 30.97199 | 6145 ft | 252 kts | 135° |
| 2026-05-05 17:32 | 59.85833 | 30.99948 | 6024 ft | 247 kts | 143° |
| 2026-05-05 17:32 | 59.84443 | 31.01583 | 6017 ft | 225 kts | 169° |
| 2026-05-05 17:32 | 59.82961 | 31.02593 | 6005 ft | 227 kts | 170° |
| 2026-05-05 17:33 | 59.81455 | 31.03619 | 6012 ft | 230 kts | 169° |
| 2026-05-05 17:33 | 59.79967 | 31.04658 | 6001 ft | 230 kts | 169° |
| 2026-05-05 17:33 | 59.78460 | 31.05725 | 5993 ft | 229 kts | 169° |
| 2026-05-05 17:33 | 59.76961 | 31.06792 | 5987 ft | 228 kts | 169° |
| 2026-05-05 17:34 | 59.75453 | 31.07500 | 5982 ft | 216 kts | 189° |
| 2026-05-05 17:34 | 59.73981 | 31.07267 | 6005 ft | 212 kts | 193° |
| 2026-05-05 17:34 | 59.72514 | 31.06930 | 6003 ft | 212 kts | 193° |
| 2026-05-05 17:34 | 59.71045 | 31.06605 | 6001 ft | 213 kts | 193° |
| 2026-05-05 17:35 | 59.69568 | 31.06293 | 6001 ft | 213 kts | 193° |
| 2026-05-05 17:35 | 59.68104 | 31.05907 | 5999 ft | 210 kts | 202° |
| 2026-05-05 17:35 | 59.66766 | 31.04716 | 6011 ft | 206 kts | 212° |
| 2026-05-05 17:35 | 59.65530 | 31.03411 | 6002 ft | 206 kts | 212° |
| 2026-05-05 17:36 | 59.64259 | 31.02062 | 6004 ft | 207 kts | 212° |
| 2026-05-05 17:36 | 59.62985 | 31.00716 | 5998 ft | 208 kts | 212° |
| 2026-05-05 17:36 | 59.61705 | 30.99371 | 6008 ft | 209 kts | 212° |
| 2026-05-05 17:36 | 59.60571 | 30.97645 | 6012 ft | 205 kts | 229° |
| 2026-05-05 17:37 | 59.59747 | 30.95387 | 5897 ft | 203 kts | 248° |
| 2026-05-05 17:37 | 59.59681 | 30.92625 | 5591 ft | 208 kts | 279° |
| 2026-05-05 17:37 | 59.60339 | 30.90007 | 5133 ft | 219 kts | 299° |
| 2026-05-05 17:37 | 59.61478 | 30.87912 | 4692 ft | 233 kts | 326° |
| 2026-05-05 17:38 | 59.62998 | 30.86764 | 4366 ft | 234 kts | 335° |
| 2026-05-05 17:38 | 59.64554 | 30.85846 | 4019 ft | 232 kts | 337° |
| 2026-05-05 17:38 | 59.66068 | 30.84953 | 3702 ft | 226 kts | 332° |
| 2026-05-05 17:38 | 59.67301 | 30.83270 | 3536 ft | 206 kts | 302° |
| 2026-05-05 17:39 | 59.68074 | 30.80956 | 3468 ft | 207 kts | 297° |
| 2026-05-05 17:39 | 59.68844 | 30.78505 | 3352 ft | 211 kts | 298° |
| 2026-05-05 17:39 | 59.69649 | 30.76069 | 3233 ft | 211 kts | 300° |
| 2026-05-05 17:39 | 59.70465 | 30.73703 | 3148 ft | 203 kts | 301° |
| 2026-05-05 17:40 | 59.71246 | 30.71507 | 3036 ft | 186 kts | 301° |
| 2026-05-05 17:40 | 59.71970 | 30.69499 | 2941 ft | 171 kts | 301° |
| 2026-05-05 17:40 | 59.72635 | 30.67655 | 2864 ft | 159 kts | 301° |
| 2026-05-05 17:40 | 59.73283 | 30.65852 | 2802 ft | 161 kts | 301° |
| 2026-05-05 17:41 | 59.73921 | 30.64079 | 2715 ft | 158 kts | 301° |
| 2026-05-05 17:41 | 59.74558 | 30.62313 | 2630 ft | 153 kts | 301° |
| 2026-05-05 17:41 | 59.75162 | 30.60636 | 2569 ft | 150 kts | 301° |
| 2026-05-05 17:41 | 59.75685 | 30.58835 | 2492 ft | 152 kts | 293° |
| 2026-05-05 17:42 | 59.76102 | 30.56948 | 2408 ft | 144 kts | 290° |
| 2026-05-05 17:42 | 59.76425 | 30.55163 | 2306 ft | 131 kts | 287° |
| 2026-05-05 17:42 | 59.76689 | 30.53503 | 2246 ft | 122 kts | 287° |
| 2026-05-05 17:42 | 59.76935 | 30.51881 | 2141 ft | 121 kts | 286° |
| 2026-05-05 17:43 | 59.77174 | 30.50269 | 2046 ft | 122 kts | 286° |
| 2026-05-05 17:43 | 59.77415 | 30.48632 | 1892 ft | 124 kts | 286° |
| 2026-05-05 17:43 | 59.77659 | 30.46970 | 1806 ft | 124 kts | 286° |
| 2026-05-05 17:43 | 59.77902 | 30.45316 | 1692 ft | 125 kts | 287° |
| 2026-05-05 17:44 | 59.78151 | 30.43654 | 1460 ft | 128 kts | 288° |
| 2026-05-05 17:44 | 59.78417 | 30.41961 | 1343 ft | 130 kts | 287° |
| 2026-05-05 17:44 | 59.78663 | 30.40219 | 1134 ft | 134 kts | 285° |
| 2026-05-05 17:44 | 59.78929 | 30.38371 | 862 ft | 138 kts | 286° |
| 2026-05-05 17:45 | 59.79185 | 30.36600 | 693 ft | 133 kts | 285° |
| 2026-05-05 17:45 | 59.79452 | 30.34822 | 482 ft | 135 kts | 287° |
| 2026-05-05 17:45 | 59.79713 | 30.33032 | 370 ft | 136 kts | 286° |
| 2026-05-05 17:45 | 59.79978 | 30.31217 | 237 ft | 136 kts | 286° |
| 2026-05-05 17:46 | 59.80251 | 30.29408 | 98 ft | 130 kts | 283° |
| 2026-05-05 17:46 | 59.80482 | 30.27833 | 75 ft | 97 kts | 285° |
| 2026-05-05 17:46 | 59.80593 | 30.27093 | 83 ft | 21 kts | 286° |
| 2026-05-05 17:46 | 59.80633 | 30.26818 | 82 ft | 14 kts | 286° |
| 2026-05-05 17:47 | 59.80636 | 30.26688 | 79 ft | 7 kts | 235° |
| 2026-05-05 17:47 | 59.80592 | 30.26640 | 82 ft | 8 kts | 200° |
| 2026-05-05 17:47 | 59.80565 | 30.26623 | 83 ft | 0 kts | 196° |
| 2026-05-05 17:48 | 59.80552 | 30.26616 | 81 ft | 4 kts | 196° |
| 2026-05-05 17:48 | 59.80513 | 30.26593 | 85 ft | 8 kts | 196° |
| 2026-05-05 17:49 | 59.80448 | 30.26598 | 82 ft | 11 kts | 142° |
| 2026-05-05 17:49 | 59.80418 | 30.26724 | 85 ft | 11 kts | 108° |
| 2026-05-05 17:49 | 59.80395 | 30.26767 | 84 ft | 3 kts | 188° |
| 2026-05-05 17:49 | 59.80371 | 30.26753 | 82 ft | 4 kts | 198° |
| 2026-05-05 17:50 | 59.80334 | 30.26729 | 82 ft | 7 kts | 198° |
| 2026-05-05 17:50 | 59.80273 | 30.26690 | 84 ft | 11 kts | 197° |
| 2026-05-05 17:50 | 59.80188 | 30.26639 | 85 ft | 14 kts | 195° |
| 2026-05-05 17:50 | 59.80087 | 30.26581 | 83 ft | 9 kts | 196° |
| 2026-05-05 17:51 | 59.80066 | 30.26550 | 82 ft | 5 kts | 242° |
| 2026-05-05 17:51 | 59.80068 | 30.26506 | 82 ft | 3 kts | 286° |
| 2026-05-05 17:51 | 59.80077 | 30.26448 | 83 ft | 0 kts | 286° |
| 2026-05-05 17:51 | 59.80077 | 30.26447 | 83 ft | 0 kts | 286° |